Pueblito, New Mexico
Current Conditions -  °F | °C
As of 6:55 AM on Thursday 30 Oct 2014 (Local Time) from KLAM Reporting Station
Clear Clear  
Wind Chill: 45°   Ceiling: Unl
Heat Index: 47°   Visibility: 10mi
Dew Point:   Wind: 5mph
Humidity: 22%   Direction: 360°N
Pressure: 30.37"   Gusts: NA
Location:  36.054°N, 106.072°W
Report Text: KLAM 301255Z AUTO 36004KT 10SM CLR 08/M13 A3037 RMK AO2 T00821128
Loading
Personal Weather Stations






























Interactive Weather Map
Tropical Storm Tracking
New forecast layout! Learn more

10-Day Weather Forecast

Advertisements
Track Severe Weather on mobile